Lawndale, Illinois
Current Conditions -  °F | °C
As of 7:15 PM on Sunday 21 Dec 2014 (Local Time) from KAAA Reporting Station
Overcast Overcast  
Wind Chill: 30°   Ceiling: 4300
Heat Index: 36°   Visibility: 10mi
Dew Point: 32°   Wind: 8mph
Humidity: 84%   Direction: 140°SE
Pressure: 30.04"   Gusts: NA
Location:  40.22°N, 89.28°W
Report Text: KAAA 220115Z AUTO 14007KT 10SM OVC043 02/00 A3004 RMK AO2 T00231002
Loading
Personal Weather Stations






























Interactive Weather Map New forecast layout! Learn more

10-Day Weather Forecast

Advertisements
Track Severe Weather on mobile